createdAt,value
2023-01-27T00:04:35.529Z,43.10
2023-01-27T00:09:38.274Z,39.40
2023-01-27T00:14:40.992Z,39.70
2023-01-27T00:19:44.765Z,41.30
2023-01-27T00:24:47.672Z,41.00
2023-01-27T00:29:52.936Z,43.00
2023-01-27T00:34:55.673Z,43.40
2023-01-27T00:39:58.433Z,46.80
2023-01-27T00:45:19.996Z,44.60
2023-01-27T00:50:23.614Z,40.20
2023-01-27T00:55:26.432Z,41.50
2023-01-27T01:00:29.203Z,37.20
2023-01-27T01:05:31.944Z,36.30
2023-01-27T01:10:37.623Z,34.90
2023-01-27T01:15:40.944Z,34.40
2023-01-27T01:20:45.436Z,43.20
2023-01-27T01:25:55.445Z,42.10
2023-01-27T01:31:11.868Z,35.70
2023-01-27T01:36:17.825Z,42.90
2023-01-27T01:41:20.662Z,44.70
2023-01-27T01:46:23.625Z,52.90
2023-01-27T01:51:39.636Z,54.10
2023-01-27T01:56:56.056Z,57.40
2023-01-27T02:02:02.601Z,62.00
2023-01-27T02:07:13.303Z,64.20
2023-01-27T02:12:16.049Z,68.80
2023-01-27T02:17:19.017Z,65.80
2023-01-27T02:22:47.513Z,68.10
2023-01-27T02:27:50.283Z,71.50
2023-01-27T02:32:53.049Z,71.80
2023-01-27T02:37:55.785Z,75.60
2023-01-27T02:42:58.648Z,70.60
2023-01-27T02:48:01.457Z,70.90
2023-01-27T02:53:04.409Z,74.00
2023-01-27T02:58:07.212Z,77.10
2023-01-27T03:03:10.386Z,71.40
2023-01-27T03:08:13.291Z,78.20
2023-01-27T03:13:16.028Z,75.40
2023-01-27T03:18:19.235Z,74.50
2023-01-27T03:23:21.993Z,81.30
2023-01-27T03:28:24.743Z,81.30
2023-01-27T03:33:28.533Z,74.30
2023-01-27T03:38:50.030Z,77.50
2023-01-27T03:44:11.748Z,74.00
2023-01-27T03:49:14.559Z,71.50
2023-01-27T03:54:17.350Z,71.90
2023-01-27T03:59:20.221Z,76.00
2023-01-27T04:04:42.241Z,76.20
2023-01-27T04:09:45.069Z,78.00
2023-01-27T04:14:49.207Z,70.70
2023-01-27T04:19:51.965Z,74.90
2023-01-27T04:24:54.743Z,77.80
2023-01-27T04:29:57.540Z,73.40
2023-01-27T04:35:00.337Z,72.80
2023-01-27T04:40:03.680Z,70.70
2023-01-27T04:45:07.477Z,72.80
2023-01-27T04:50:11.420Z,71.30
2023-01-27T04:55:14.827Z,65.50
2023-01-27T05:00:19.092Z,69.90
2023-01-27T05:05:22.987Z,70.80
2023-01-27T05:10:26.530Z,69.10
2023-01-27T05:15:30.169Z,77.10
2023-01-27T05:20:33.188Z,67.40
2023-01-27T05:25:36.005Z,66.70
2023-01-27T05:30:39.299Z,68.90
2023-01-27T05:35:42.223Z,69.10
2023-01-27T05:40:44.989Z,68.30
2023-01-27T05:45:47.921Z,65.50
2023-01-27T05:50:56.014Z,65.80
2023-01-27T05:55:59.005Z,67.10
2023-01-27T06:01:27.704Z,69.90
2023-01-27T06:06:32.136Z,65.70
2023-01-27T06:11:35.186Z,73.60
2023-01-27T06:16:37.971Z,68.80
2023-01-27T06:21:40.775Z,76.10
2023-01-27T06:26:43.575Z,63.80
2023-01-27T06:31:46.429Z,69.20
2023-01-27T06:36:49.330Z,62.80
2023-01-27T06:41:53.411Z,65.00
2023-01-27T06:46:56.170Z,61.90
2023-01-27T06:51:59.020Z,64.60
2023-01-27T06:57:01.826Z,66.60
2023-01-27T07:02:04.619Z,65.80
2023-01-27T07:07:07.387Z,61.90
2023-01-27T07:12:10.190Z,64.10
2023-01-27T07:17:12.973Z,66.00
2023-01-27T07:22:16.845Z,64.90
2023-01-27T07:27:19.945Z,59.80
2023-01-27T07:32:22.772Z,60.60
2023-01-27T07:37:25.711Z,60.90
2023-01-27T07:42:28.503Z,60.90
2023-01-27T07:47:31.405Z,61.40
2023-01-27T07:52:34.417Z,62.80
2023-01-27T07:57:37.304Z,61.00
2023-01-27T08:02:40.132Z,54.30
2023-01-27T08:07:42.994Z,53.60
2023-01-27T08:12:46.008Z,50.90
2023-01-27T08:17:56.987Z,48.40
2023-01-27T08:22:59.882Z,48.40
2023-01-27T08:28:02.699Z,41.00
2023-01-27T08:33:05.474Z,37.60
2023-01-27T08:38:08.979Z,36.30
2023-01-27T08:43:13.179Z,39.90
2023-01-27T08:48:16.053Z,31.30
2023-01-27T08:53:21.959Z,31.90
2023-01-27T08:58:24.849Z,31.70
2023-01-27T09:03:28.616Z,29.80
2023-01-27T09:08:31.530Z,28.70
2023-01-27T09:13:34.441Z,29.80
2023-01-27T09:18:37.714Z,29.90
2023-01-27T09:23:40.605Z,27.10
2023-01-27T09:28:43.499Z,30.20
2023-01-27T09:33:46.369Z,29.40
2023-01-27T09:38:55.556Z,28.00
2023-01-27T09:44:22.213Z,34.00
2023-01-27T09:49:47.490Z,34.20
2023-01-27T09:55:08.895Z,32.60
2023-01-27T10:00:28.024Z,31.60
2023-01-27T10:05:55.604Z,36.60
2023-01-27T10:11:24.171Z,33.30
2023-01-27T10:16:39.677Z,29.00
2023-01-27T10:22:09.963Z,32.80
2023-01-27T10:27:23.451Z,30.70
2023-01-27T10:32:38.516Z,28.00
2023-01-27T10:38:21.074Z,30.30
2023-01-27T10:43:26.638Z,32.40
2023-01-27T10:48:58.665Z,27.20
2023-01-27T10:54:09.602Z,28.30
2023-01-27T10:59:22.103Z,26.70
2023-01-27T11:04:44.175Z,29.90
2023-01-27T11:10:01.336Z,25.50
2023-01-27T11:15:30.319Z,29.00
2023-01-27T11:20:40.421Z,26.10
2023-01-27T11:26:15.853Z,28.40
2023-01-27T11:32:24.857Z,27.80
2023-01-27T11:37:43.871Z,35.00
2023-01-27T11:42:46.654Z,25.70
2023-01-27T11:47:52.954Z,27.30
2023-01-27T11:53:12.743Z,27.70
2023-01-27T11:58:34.689Z,26.20
2023-01-27T12:04:08.070Z,26.00
2023-01-27T12:09:31.593Z,27.70
2023-01-27T12:14:34.318Z,31.00
2023-01-27T12:19:43.658Z,31.30
2023-01-27T12:25:13.706Z,35.40
2023-01-27T12:30:32.556Z,34.40
2023-01-27T12:40:41.005Z,39.90
2023-01-27T12:45:44.186Z,39.30
2023-01-27T12:50:49.852Z,33.50
2023-01-27T12:56:12.418Z,38.20
2023-01-27T13:01:30.142Z,32.80
2023-01-27T13:06:55.337Z,33.10
2023-01-27T13:12:01.881Z,35.90
2023-01-27T13:17:04.700Z,36.40
2023-01-27T13:22:07.613Z,42.80
2023-01-27T13:27:16.238Z,46.60
2023-01-27T13:32:26.160Z,48.50
2023-01-27T13:37:40.857Z,50.10
2023-01-27T13:42:46.927Z,53.60
2023-01-27T13:48:03.740Z,49.10
2023-01-27T13:53:10.552Z,48.10
2023-01-27T13:58:45.726Z,38.80
2023-01-27T14:04:33.480Z,49.40
2023-01-27T14:10:14.280Z,50.50
2023-01-27T14:15:43.305Z,51.50
2023-01-27T14:26:12.346Z,54.30
2023-01-27T14:31:20.151Z,60.80
2023-01-27T14:36:41.571Z,61.00
2023-01-27T14:42:12.720Z,57.70
2023-01-27T14:47:24.199Z,63.10
2023-01-27T14:52:42.019Z,59.60
2023-01-27T14:58:32.737Z,59.70
2023-01-27T15:04:19.379Z,67.60
2023-01-27T15:09:41.044Z,67.50
2023-01-27T15:15:24.646Z,64.80
2023-01-27T15:21:00.916Z,69.30
2023-01-27T15:26:06.670Z,69.60
2023-01-27T15:31:15.879Z,65.20
2023-01-27T15:36:19.021Z,66.50
2023-01-27T15:41:22.170Z,68.80
2023-01-27T15:46:32.871Z,71.50
2023-01-27T15:51:37.767Z,71.30
2023-01-27T15:56:47.162Z,75.20
2023-01-27T16:01:50.544Z,67.10
2023-01-27T16:07:04.632Z,70.60
2023-01-27T16:12:20.165Z,71.70
2023-01-27T16:17:25.434Z,71.10
2023-01-27T16:22:28.757Z,70.00
2023-01-27T16:27:48.496Z,72.70
2023-01-27T16:33:22.845Z,72.90
2023-01-27T16:38:32.039Z,74.30
2023-01-27T16:43:52.490Z,71.20
2023-01-27T16:48:56.323Z,69.00
2023-01-27T16:53:59.911Z,67.60
2023-01-27T16:59:26.707Z,68.90
2023-01-27T17:04:29.891Z,68.00
2023-01-27T17:09:35.299Z,70.30
2023-01-27T17:14:38.480Z,64.50
2023-01-27T17:19:41.452Z,65.50
2023-01-27T17:24:50.069Z,66.60
2023-01-27T17:30:08.463Z,71.90
2023-01-27T17:35:33.120Z,72.40
2023-01-27T17:40:39.205Z,73.30
2023-01-27T17:45:43.153Z,76.30
2023-01-27T17:50:45.929Z,77.20
2023-01-27T17:55:48.655Z,81.40
2023-01-27T18:00:51.539Z,87.40
2023-01-27T18:05:54.516Z,88.10
2023-01-27T18:11:12.297Z,91.30
2023-01-27T18:16:18.138Z,99.50
2023-01-27T18:21:25.953Z,90.30
2023-01-27T18:26:39.565Z,90.10
2023-01-27T18:31:57.126Z,90.20
2023-01-27T18:37:20.750Z,95.20
2023-01-27T18:42:28.525Z,97.60
2023-01-27T18:47:34.689Z,90.90
2023-01-27T18:52:38.425Z,88.60
2023-01-27T18:57:41.280Z,92.20
2023-01-27T19:02:48.223Z,97.30
2023-01-27T19:07:51.197Z,90.00
2023-01-27T19:12:59.015Z,84.80
2023-01-27T19:18:26.321Z,95.80
2023-01-27T19:23:29.470Z,89.90
2023-01-27T19:28:35.488Z,95.00
2023-01-27T19:33:38.917Z,90.70
2023-01-27T19:38:41.816Z,93.90
2023-01-27T19:43:47.281Z,91.90
2023-01-27T19:48:50.267Z,89.50
2023-01-27T19:53:53.062Z,90.20
2023-01-27T19:58:56.822Z,84.30
2023-01-27T20:03:59.609Z,87.90
2023-01-27T20:09:03.570Z,93.20
2023-01-27T20:14:15.361Z,92.00
2023-01-27T20:19:18.336Z,91.60
2023-01-27T20:24:21.117Z,91.70
2023-01-27T20:29:24.024Z,85.10
2023-01-27T20:34:26.780Z,85.10
2023-01-27T20:39:32.044Z,85.90
2023-01-27T20:44:34.799Z,85.50
2023-01-27T20:49:37.566Z,84.50
2023-01-27T20:54:40.328Z,89.90
2023-01-27T20:59:43.717Z,88.10
2023-01-27T21:04:46.567Z,86.90
2023-01-27T21:09:50.783Z,91.60
2023-01-27T21:14:53.604Z,88.50
2023-01-27T21:19:56.359Z,85.70
2023-01-27T21:24:59.142Z,85.70
2023-01-27T21:30:01.909Z,82.20
2023-01-27T21:35:05.255Z,84.10
2023-01-27T21:40:09.315Z,78.50
2023-01-27T21:45:13.279Z,74.20
2023-01-27T21:50:17.447Z,69.00
2023-01-27T21:55:23.122Z,69.00
2023-01-27T22:00:27.838Z,64.40
2023-01-27T22:05:32.403Z,59.70
2023-01-27T22:10:36.245Z,59.20
2023-01-27T22:15:39.034Z,58.30
2023-01-27T22:20:41.859Z,58.70
2023-01-27T22:25:52.405Z,59.00
2023-01-27T22:30:55.302Z,58.90
2023-01-27T22:36:00.723Z,54.90
2023-01-27T22:41:03.590Z,57.10
2023-01-27T22:46:06.399Z,54.60
2023-01-27T22:51:09.220Z,53.70
2023-01-27T22:56:12.054Z,55.60
2023-01-27T23:01:14.870Z,52.40
2023-01-27T23:06:17.667Z,51.20
2023-01-27T23:11:20.545Z,53.50
2023-01-27T23:16:23.712Z,53.70
2023-01-27T23:21:26.764Z,54.10
2023-01-27T23:26:29.507Z,49.90
2023-01-27T23:31:33.428Z,52.30
2023-01-27T23:36:37.761Z,52.40
2023-01-27T23:41:40.646Z,52.10
2023-01-27T23:46:45.817Z,54.10
2023-01-27T23:51:48.551Z,52.10
2023-01-27T23:58:29.709Z,49.70
